SAN weather

San Diego International Airport
San Diego, California, United States

Public forecast

Using degrees Fahrenheit for public forecast. Weather courtesy of forecast.io.

METAR (pilot weather report)

Retrieved 2018/08/16 04:51 UTC (13 minutes ago):

KSAN 160451Z 22005KT 10SM BKN018 23/18 A2996 RMK AO2 SLP145 T02280178

TAF (pilot weather forecast)

Forecast is more than 12 hours old.

Retrieved 2018/08/15 00:22 UTC (1 day ago):

TAF KSAN 152320Z 1600/1706 24008KT P6SM SCT022 SCT100 FM160200 26005KT P6SM BKN020 FM160600 VRB04KT P6SM OVC018 FM161900 28008KT P6SM SCT020 SCT100 FM170200 VRB04KT P6SM BKN020